sensor_id;sensor_type;location;lat;lon;timestamp;temperature;humidity
75615;DHT22;64199;48.578;-4.520;2022-12-18T00:01:58;21.90;41.90
75615;DHT22;64199;48.578;-4.520;2022-12-18T00:04:26;21.90;41.90
75615;DHT22;64199;48.578;-4.520;2022-12-18T00:06:52;21.90;41.90
75615;DHT22;64199;48.578;-4.520;2022-12-18T00:09:18;21.90;41.90
75615;DHT22;64199;48.578;-4.520;2022-12-18T00:11:45;21.90;42.00
75615;DHT22;64199;48.578;-4.520;2022-12-18T00:14:12;21.80;41.90
75615;DHT22;64199;48.578;-4.520;2022-12-18T00:16:39;21.90;41.90
75615;DHT22;64199;48.578;-4.520;2022-12-18T00:19:06;21.90;41.90
75615;DHT22;64199;48.578;-4.520;2022-12-18T00:21:33;21.80;41.90
75615;DHT22;64199;48.578;-4.520;2022-12-18T00:23:59;21.80;41.90
75615;DHT22;64199;48.578;-4.520;2022-12-18T00:26:28;21.80;41.90
75615;DHT22;64199;48.578;-4.520;2022-12-18T00:28:54;21.80;41.90
75615;DHT22;64199;48.578;-4.520;2022-12-18T00:31:24;21.90;42.00
75615;DHT22;64199;48.578;-4.520;2022-12-18T00:33:50;21.80;42.00
75615;DHT22;64199;48.578;-4.520;2022-12-18T00:36:21;21.80;42.00
75615;DHT22;64199;48.578;-4.520;2022-12-18T00:38:48;21.90;42.10
75615;DHT22;64199;48.578;-4.520;2022-12-18T00:41:15;21.80;42.00
75615;DHT22;64199;48.578;-4.520;2022-12-18T00:44:06;21.80;42.00
75615;DHT22;64199;48.578;-4.520;2022-12-18T00:46:32;21.90;42.00
75615;DHT22;64199;48.578;-4.520;2022-12-18T00:48:59;21.80;42.00
75615;DHT22;64199;48.578;-4.520;2022-12-18T00:51:25;21.80;42.00
75615;DHT22;64199;48.578;-4.520;2022-12-18T00:53:52;21.80;42.00
75615;DHT22;64199;48.578;-4.520;2022-12-18T00:56:22;21.80;42.00
75615;DHT22;64199;48.578;-4.520;2022-12-18T00:58:48;21.80;42.00
75615;DHT22;64199;48.578;-4.520;2022-12-18T01:01:14;21.80;42.00
75615;DHT22;64199;48.578;-4.520;2022-12-18T01:03:40;21.80;42.00
75615;DHT22;64199;48.578;-4.520;2022-12-18T01:06:08;21.80;42.00
75615;DHT22;64199;48.578;-4.520;2022-12-18T01:08:34;21.80;42.00
75615;DHT22;64199;48.578;-4.520;2022-12-18T01:11:06;21.80;42.00
75615;DHT22;64199;48.578;-4.520;2022-12-18T01:13:32;21.90;42.10
75615;DHT22;64199;48.578;-4.520;2022-12-18T01:15:58;21.80;42.00
75615;DHT22;64199;48.578;-4.520;2022-12-18T01:18:23;21.80;42.00
75615;DHT22;64199;48.578;-4.520;2022-12-18T01:20:49;21.80;42.00
75615;DHT22;64199;48.578;-4.520;2022-12-18T01:23:15;21.80;42.00
75615;DHT22;64199;48.578;-4.520;2022-12-18T01:25:41;21.80;42.00
75615;DHT22;64199;48.578;-4.520;2022-12-18T01:28:07;21.80;42.60
75615;DHT22;64199;48.578;-4.520;2022-12-18T01:30:32;21.80;41.90
75615;DHT22;64199;48.578;-4.520;2022-12-18T01:32:58;21.80;41.90
75615;DHT22;64199;48.578;-4.520;2022-12-18T01:35:24;21.80;41.90
75615;DHT22;64199;48.578;-4.520;2022-12-18T01:37:54;21.80;41.90
75615;DHT22;64199;48.578;-4.520;2022-12-18T01:40:20;21.80;41.90
75615;DHT22;64199;48.578;-4.520;2022-12-18T01:42:51;21.80;41.90
75615;DHT22;64199;48.578;-4.520;2022-12-18T01:45:26;21.80;41.90
75615;DHT22;64199;48.578;-4.520;2022-12-18T01:47:58;21.80;41.90
75615;DHT22;64199;48.578;-4.520;2022-12-18T01:50:36;21.80;41.90
75615;DHT22;64199;48.578;-4.520;2022-12-18T01:53:19;21.80;42.00
75615;DHT22;64199;48.578;-4.520;2022-12-18T01:55:56;21.80;41.90
75615;DHT22;64199;48.578;-4.520;2022-12-18T01:58:30;21.80;41.90
75615;DHT22;64199;48.578;-4.520;2022-12-18T02:00:58;21.70;41.90
75615;DHT22;64199;48.578;-4.520;2022-12-18T02:03:24;21.70;41.90
75615;DHT22;64199;48.578;-4.520;2022-12-18T02:06:17;21.70;41.90
75615;DHT22;64199;48.578;-4.520;2022-12-18T02:14:28;21.70;41.90
75615;DHT22;64199;48.578;-4.520;2022-12-18T02:19:54;21.70;41.90
75615;DHT22;64199;48.578;-4.520;2022-12-18T02:22:26;21.70;41.90
75615;DHT22;64199;48.578;-4.520;2022-12-18T02:25:27;21.70;41.90
75615;DHT22;64199;48.578;-4.520;2022-12-18T02:28:01;21.70;41.90
75615;DHT22;64199;48.578;-4.520;2022-12-18T02:30:31;21.70;41.90
75615;DHT22;64199;48.578;-4.520;2022-12-18T02:32:57;21.70;41.90
75615;DHT22;64199;48.578;-4.520;2022-12-18T02:35:27;21.70;41.90
75615;DHT22;64199;48.578;-4.520;2022-12-18T02:37:54;21.70;41.90
75615;DHT22;64199;48.578;-4.520;2022-12-18T02:40:23;21.70;42.00
75615;DHT22;64199;48.578;-4.520;2022-12-18T02:42:51;21.70;42.00
75615;DHT22;64199;48.578;-4.520;2022-12-18T02:45:17;21.70;42.00
75615;DHT22;64199;48.578;-4.520;2022-12-18T02:47:46;21.60;42.00
75615;DHT22;64199;48.578;-4.520;2022-12-18T02:50:38;21.60;41.90
75615;DHT22;64199;48.578;-4.520;2022-12-18T02:53:41;21.70;42.00
75615;DHT22;64199;48.578;-4.520;2022-12-18T02:56:17;21.60;41.90
75615;DHT22;64199;48.578;-4.520;2022-12-18T02:59:04;21.60;42.50
75615;DHT22;64199;48.578;-4.520;2022-12-18T03:04:16;21.60;41.90
75615;DHT22;64199;48.578;-4.520;2022-12-18T03:06:48;21.60;42.00
75615;DHT22;64199;48.578;-4.520;2022-12-18T03:09:35;21.70;42.00
75615;DHT22;64199;48.578;-4.520;2022-12-18T03:12:11;21.70;42.00
75615;DHT22;64199;48.578;-4.520;2022-12-18T03:17:31;21.60;42.00
75615;DHT22;64199;48.578;-4.520;2022-12-18T03:20:05;21.60;42.00
75615;DHT22;64199;48.578;-4.520;2022-12-18T03:22:34;21.60;42.00
75615;DHT22;64199;48.578;-4.520;2022-12-18T03:25:03;21.60;42.00
75615;DHT22;64199;48.578;-4.520;2022-12-18T03:27:32;21.60;42.00
75615;DHT22;64199;48.578;-4.520;2022-12-18T03:30:08;21.60;42.00
75615;DHT22;64199;48.578;-4.520;2022-12-18T03:35:18;21.60;42.00
75615;DHT22;64199;48.578;-4.520;2022-12-18T03:37:46;21.60;42.00
75615;DHT22;64199;48.578;-4.520;2022-12-18T03:40:12;21.60;42.00
75615;DHT22;64199;48.578;-4.520;2022-12-18T03:43:00;21.60;42.00
75615;DHT22;64199;48.578;-4.520;2022-12-18T03:45:37;21.60;42.60
75615;DHT22;64199;48.578;-4.520;2022-12-18T03:48:19;21.60;42.00
75615;DHT22;64199;48.578;-4.520;2022-12-18T03:51:03;21.60;42.00
75615;DHT22;64199;48.578;-4.520;2022-12-18T03:53:56;21.60;42.00
75615;DHT22;64199;48.578;-4.520;2022-12-18T03:56:26;21.60;42.00
75615;DHT22;64199;48.578;-4.520;2022-12-18T03:58:55;21.60;42.00
75615;DHT22;64199;48.578;-4.520;2022-12-18T04:01:30;21.60;42.00
75615;DHT22;64199;48.578;-4.520;2022-12-18T04:04:01;21.60;42.00
75615;DHT22;64199;48.578;-4.520;2022-12-18T04:06:28;21.60;42.00
75615;DHT22;64199;48.578;-4.520;2022-12-18T04:08:55;21.60;42.00
75615;DHT22;64199;48.578;-4.520;2022-12-18T04:11:22;21.50;42.00
75615;DHT22;64199;48.578;-4.520;2022-12-18T04:13:48;21.50;41.90
75615;DHT22;64199;48.578;-4.520;2022-12-18T04:16:13;21.50;41.90
75615;DHT22;64199;48.578;-4.520;2022-12-18T04:18:39;21.60;42.20
75615;DHT22;64199;48.578;-4.520;2022-12-18T04:21:05;21.50;41.90
75615;DHT22;64199;48.578;-4.520;2022-12-18T04:23:31;21.60;42.00
75615;DHT22;64199;48.578;-4.520;2022-12-18T04:25:57;21.60;42.00
75615;DHT22;64199;48.578;-4.520;2022-12-18T04:28:23;21.60;42.00
75615;DHT22;64199;48.578;-4.520;2022-12-18T04:30:49;21.50;42.00
75615;DHT22;64199;48.578;-4.520;2022-12-18T04:33:18;21.60;42.00
75615;DHT22;64199;48.578;-4.520;2022-12-18T04:35:44;21.60;42.00
75615;DHT22;64199;48.578;-4.520;2022-12-18T04:38:10;21.60;42.00
75615;DHT22;64199;48.578;-4.520;2022-12-18T04:40:37;21.50;41.90
75615;DHT22;64199;48.578;-4.520;2022-12-18T04:43:03;21.50;41.90
75615;DHT22;64199;48.578;-4.520;2022-12-18T04:45:33;21.60;42.00
75615;DHT22;64199;48.578;-4.520;2022-12-18T04:48:00;21.50;41.90
75615;DHT22;64199;48.578;-4.520;2022-12-18T04:50:26;21.50;41.90
75615;DHT22;64199;48.578;-4.520;2022-12-18T04:52:52;21.50;41.80
75615;DHT22;64199;48.578;-4.520;2022-12-18T04:55:18;21.50;41.80
75615;DHT22;64199;48.578;-4.520;2022-12-18T04:57:44;21.50;41.80
75615;DHT22;64199;48.578;-4.520;2022-12-18T05:00:11;21.50;41.80
75615;DHT22;64199;48.578;-4.520;2022-12-18T05:02:37;21.50;41.80
75615;DHT22;64199;48.578;-4.520;2022-12-18T05:05:03;21.50;41.80
75615;DHT22;64199;48.578;-4.520;2022-12-18T05:07:29;21.50;41.80
75615;DHT22;64199;48.578;-4.520;2022-12-18T05:09:55;21.50;41.80
75615;DHT22;64199;48.578;-4.520;2022-12-18T05:12:23;21.50;41.80
75615;DHT22;64199;48.578;-4.520;2022-12-18T05:14:49;21.40;41.70
75615;DHT22;64199;48.578;-4.520;2022-12-18T05:17:15;21.50;41.80
75615;DHT22;64199;48.578;-4.520;2022-12-18T05:19:41;21.40;41.70
75615;DHT22;64199;48.578;-4.520;2022-12-18T05:22:07;21.50;41.90
75615;DHT22;64199;48.578;-4.520;2022-12-18T05:24:33;21.40;41.80
75615;DHT22;64199;48.578;-4.520;2022-12-18T05:26:59;21.50;42.40
75615;DHT22;64199;48.578;-4.520;2022-12-18T05:29:25;21.40;42.70
75615;DHT22;64199;48.578;-4.520;2022-12-18T05:31:51;21.40;42.90
75615;DHT22;64199;48.578;-4.520;2022-12-18T05:34:17;21.40;43.00
75615;DHT22;64199;48.578;-4.520;2022-12-18T05:36:43;21.40;43.00
75615;DHT22;64199;48.578;-4.520;2022-12-18T05:39:09;21.40;43.70
75615;DHT22;64199;48.578;-4.520;2022-12-18T05:41:34;21.40;43.10
75615;DHT22;64199;48.578;-4.520;2022-12-18T05:44:00;21.40;43.20
75615;DHT22;64199;48.578;-4.520;2022-12-18T05:46:26;21.40;43.20
75615;DHT22;64199;48.578;-4.520;2022-12-18T05:48:52;21.40;43.20
75615;DHT22;64199;48.578;-4.520;2022-12-18T05:51:21;21.40;43.20
75615;DHT22;64199;48.578;-4.520;2022-12-18T05:53:47;21.40;43.20
75615;DHT22;64199;48.578;-4.520;2022-12-18T05:56:19;21.40;43.30
75615;DHT22;64199;48.578;-4.520;2022-12-18T05:58:46;21.40;43.30
75615;DHT22;64199;48.578;-4.520;2022-12-18T06:01:15;21.30;43.20
75615;DHT22;64199;48.578;-4.520;2022-12-18T06:03:42;21.40;43.10
75615;DHT22;64199;48.578;-4.520;2022-12-18T06:06:22;21.40;42.90
75615;DHT22;64199;48.578;-4.520;2022-12-18T06:08:49;21.40;42.70
75615;DHT22;64199;48.578;-4.520;2022-12-18T06:11:21;21.40;42.60
75615;DHT22;64199;48.578;-4.520;2022-12-18T06:13:50;21.40;42.50
75615;DHT22;64199;48.578;-4.520;2022-12-18T06:16:16;21.30;42.40
75615;DHT22;64199;48.578;-4.520;2022-12-18T06:18:42;21.30;42.30
75615;DHT22;64199;48.578;-4.520;2022-12-18T06:21:08;21.30;42.30
75615;DHT22;64199;48.578;-4.520;2022-12-18T06:23:34;21.30;42.30
75615;DHT22;64199;48.578;-4.520;2022-12-18T06:26:10;21.40;42.30
75615;DHT22;64199;48.578;-4.520;2022-12-18T06:28:37;21.30;42.20
75615;DHT22;64199;48.578;-4.520;2022-12-18T06:31:03;21.40;42.20
75615;DHT22;64199;48.578;-4.520;2022-12-18T06:33:30;21.30;42.20
75615;DHT22;64199;48.578;-4.520;2022-12-18T06:36:04;21.30;42.10
75615;DHT22;64199;48.578;-4.520;2022-12-18T06:38:32;21.40;42.20
75615;DHT22;64199;48.578;-4.520;2022-12-18T06:40:58;21.40;42.20
75615;DHT22;64199;48.578;-4.520;2022-12-18T06:43:24;21.40;42.20
75615;DHT22;64199;48.578;-4.520;2022-12-18T06:45:50;21.40;42.20
75615;DHT22;64199;48.578;-4.520;2022-12-18T06:48:21;21.40;42.10
75615;DHT22;64199;48.578;-4.520;2022-12-18T06:50:47;21.30;42.10
75615;DHT22;64199;48.578;-4.520;2022-12-18T06:53:13;21.30;42.10
75615;DHT22;64199;48.578;-4.520;2022-12-18T06:55:39;21.30;42.20
75615;DHT22;64199;48.578;-4.520;2022-12-18T06:58:04;21.30;42.10
75615;DHT22;64199;48.578;-4.520;2022-12-18T07:00:30;21.30;42.10
75615;DHT22;64199;48.578;-4.520;2022-12-18T07:02:56;21.30;42.20
75615;DHT22;64199;48.578;-4.520;2022-12-18T07:05:22;21.40;42.20
75615;DHT22;64199;48.578;-4.520;2022-12-18T07:07:48;21.30;42.10
75615;DHT22;64199;48.578;-4.520;2022-12-18T07:10:14;21.30;42.10
75615;DHT22;64199;48.578;-4.520;2022-12-18T07:12:40;21.30;42.20
75615;DHT22;64199;48.578;-4.520;2022-12-18T07:15:07;21.30;42.30
75615;DHT22;64199;48.578;-4.520;2022-12-18T07:17:33;21.30;42.70
75615;DHT22;64199;48.578;-4.520;2022-12-18T07:19:58;21.30;42.80
75615;DHT22;64199;48.578;-4.520;2022-12-18T07:22:27;21.30;42.90
75615;DHT22;64199;48.578;-4.520;2022-12-18T07:24:53;21.30;42.80
75615;DHT22;64199;48.578;-4.520;2022-12-18T07:27:19;21.30;42.90
75615;DHT22;64199;48.578;-4.520;2022-12-18T07:29:45;21.30;42.90
75615;DHT22;64199;48.578;-4.520;2022-12-18T07:32:11;21.30;42.80
75615;DHT22;64199;48.578;-4.520;2022-12-18T07:34:36;21.30;42.70
75615;DHT22;64199;48.578;-4.520;2022-12-18T07:37:02;21.30;42.70
75615;DHT22;64199;48.578;-4.520;2022-12-18T07:39:28;21.30;42.70
75615;DHT22;64199;48.578;-4.520;2022-12-18T07:41:54;21.30;42.60
75615;DHT22;64199;48.578;-4.520;2022-12-18T07:44:38;21.30;42.60
75615;DHT22;64199;48.578;-4.520;2022-12-18T07:47:04;21.30;42.60
75615;DHT22;64199;48.578;-4.520;2022-12-18T07:49:30;21.30;42.60
75615;DHT22;64199;48.578;-4.520;2022-12-18T07:51:56;21.30;42.70
75615;DHT22;64199;48.578;-4.520;2022-12-18T07:54:23;21.30;42.60
75615;DHT22;64199;48.578;-4.520;2022-12-18T07:56:50;21.30;42.60
75615;DHT22;64199;48.578;-4.520;2022-12-18T07:59:16;21.30;42.60
75615;DHT22;64199;48.578;-4.520;2022-12-18T08:01:43;21.30;42.60
75615;DHT22;64199;48.578;-4.520;2022-12-18T08:04:10;21.30;42.60
75615;DHT22;64199;48.578;-4.520;2022-12-18T08:06:35;21.30;42.60
75615;DHT22;64199;48.578;-4.520;2022-12-18T08:09:02;21.40;42.60
75615;DHT22;64199;48.578;-4.520;2022-12-18T08:11:28;21.30;42.60
75615;DHT22;64199;48.578;-4.520;2022-12-18T08:13:54;21.30;42.60
75615;DHT22;64199;48.578;-4.520;2022-12-18T08:16:21;21.30;42.60
75615;DHT22;64199;48.578;-4.520;2022-12-18T08:18:47;21.30;42.60
75615;DHT22;64199;48.578;-4.520;2022-12-18T08:21:16;21.30;42.60
75615;DHT22;64199;48.578;-4.520;2022-12-18T08:23:43;21.40;42.70
75615;DHT22;64199;48.578;-4.520;2022-12-18T08:26:11;21.40;42.60
75615;DHT22;64199;48.578;-4.520;2022-12-18T08:28:37;21.40;42.60
75615;DHT22;64199;48.578;-4.520;2022-12-18T08:31:03;21.40;42.70
75615;DHT22;64199;48.578;-4.520;2022-12-18T08:33:30;21.30;42.70
75615;DHT22;64199;48.578;-4.520;2022-12-18T08:35:55;21.40;42.70
75615;DHT22;64199;48.578;-4.520;2022-12-18T08:38:21;21.30;42.60
75615;DHT22;64199;48.578;-4.520;2022-12-18T08:40:48;21.40;42.70
75615;DHT22;64199;48.578;-4.520;2022-12-18T08:43:14;21.30;42.70
75615;DHT22;64199;48.578;-4.520;2022-12-18T08:45:58;21.40;42.70
75615;DHT22;64199;48.578;-4.520;2022-12-18T08:48:24;21.40;42.70
75615;DHT22;64199;48.578;-4.520;2022-12-18T08:51:00;21.30;42.70
75615;DHT22;64199;48.578;-4.520;2022-12-18T08:53:26;21.40;42.70
75615;DHT22;64199;48.578;-4.520;2022-12-18T08:55:53;21.40;43.40
75615;DHT22;64199;48.578;-4.520;2022-12-18T08:58:19;21.40;42.70
75615;DHT22;64199;48.578;-4.520;2022-12-18T09:00:45;21.40;42.70
75615;DHT22;64199;48.578;-4.520;2022-12-18T09:03:18;21.30;42.70
75615;DHT22;64199;48.578;-4.520;2022-12-18T09:05:46;21.40;42.70
75615;DHT22;64199;48.578;-4.520;2022-12-18T09:08:12;21.40;42.70
75615;DHT22;64199;48.578;-4.520;2022-12-18T09:10:43;21.40;42.70
75615;DHT22;64199;48.578;-4.520;2022-12-18T09:13:10;21.40;42.70
75615;DHT22;64199;48.578;-4.520;2022-12-18T09:15:47;21.40;42.70
75615;DHT22;64199;48.578;-4.520;2022-12-18T09:18:15;21.40;42.70
75615;DHT22;64199;48.578;-4.520;2022-12-18T09:20:41;21.40;42.70
75615;DHT22;64199;48.578;-4.520;2022-12-18T09:23:08;21.40;42.70
75615;DHT22;64199;48.578;-4.520;2022-12-18T09:25:35;21.40;42.70
75615;DHT22;64199;48.578;-4.520;2022-12-18T09:28:09;21.40;42.70
75615;DHT22;64199;48.578;-4.520;2022-12-18T09:30:38;21.40;42.70
75615;DHT22;64199;48.578;-4.520;2022-12-18T09:33:03;21.40;42.60
75615;DHT22;64199;48.578;-4.520;2022-12-18T09:35:29;21.40;42.60
75615;DHT22;64199;48.578;-4.520;2022-12-18T09:37:55;21.30;42.70
75615;DHT22;64199;48.578;-4.520;2022-12-18T09:40:25;21.30;42.70
75615;DHT22;64199;48.578;-4.520;2022-12-18T09:42:59;21.40;42.80
75615;DHT22;64199;48.578;-4.520;2022-12-18T09:45:26;21.30;42.70
75615;DHT22;64199;48.578;-4.520;2022-12-18T09:47:54;21.40;42.80
75615;DHT22;64199;48.578;-4.520;2022-12-18T09:50:26;21.40;42.80
75615;DHT22;64199;48.578;-4.520;2022-12-18T09:52:55;21.40;42.80
75615;DHT22;64199;48.578;-4.520;2022-12-18T09:55:36;21.40;42.80
75615;DHT22;64199;48.578;-4.520;2022-12-18T10:00:52;21.40;42.90
75615;DHT22;64199;48.578;-4.520;2022-12-18T10:03:17;21.40;42.90
75615;DHT22;64199;48.578;-4.520;2022-12-18T10:06:02;21.40;42.90
75615;DHT22;64199;48.578;-4.520;2022-12-18T10:08:54;21.40;42.90
75615;DHT22;64199;48.578;-4.520;2022-12-18T10:19:56;21.40;43.00
75615;DHT22;64199;48.578;-4.520;2022-12-18T10:26:03;21.40;43.00
75615;DHT22;64199;48.578;-4.520;2022-12-18T10:28:16;21.40;43.00
75615;DHT22;64199;48.578;-4.520;2022-12-18T10:30:43;21.40;43.10
75615;DHT22;64199;48.578;-4.520;2022-12-18T10:33:16;21.40;43.00
75615;DHT22;64199;48.578;-4.520;2022-12-18T10:35:42;21.40;43.00
75615;DHT22;64199;48.578;-4.520;2022-12-18T10:43:24;21.40;43.00
75615;DHT22;64199;48.578;-4.520;2022-12-18T10:51:06;21.40;43.10
75615;DHT22;64199;48.578;-4.520;2022-12-18T10:53:34;21.40;43.20
75615;DHT22;64199;48.578;-4.520;2022-12-18T10:56:00;21.50;43.30
75615;DHT22;64199;48.578;-4.520;2022-12-18T10:58:30;21.40;43.20
75615;DHT22;64199;48.578;-4.520;2022-12-18T11:01:15;21.50;43.30
75615;DHT22;64199;48.578;-4.520;2022-12-18T11:03:42;21.50;43.40
75615;DHT22;64199;48.578;-4.520;2022-12-18T11:06:15;21.50;43.40
75615;DHT22;64199;48.578;-4.520;2022-12-18T11:08:43;21.50;43.50
75615;DHT22;64199;48.578;-4.520;2022-12-18T11:11:36;21.60;43.40
75615;DHT22;64199;48.578;-4.520;2022-12-18T11:14:06;21.50;43.50
75615;DHT22;64199;48.578;-4.520;2022-12-18T11:16:44;21.50;43.40
75615;DHT22;64199;48.578;-4.520;2022-12-18T11:19:36;21.60;43.40
75615;DHT22;64199;48.578;-4.520;2022-12-18T11:22:20;21.60;43.40
75615;DHT22;64199;48.578;-4.520;2022-12-18T11:24:59;21.60;43.40
75615;DHT22;64199;48.578;-4.520;2022-12-18T11:27:25;21.50;43.40
75615;DHT22;64199;48.578;-4.520;2022-12-18T11:29:51;21.60;43.40
75615;DHT22;64199;48.578;-4.520;2022-12-18T11:32:32;21.60;43.50
75615;DHT22;64199;48.578;-4.520;2022-12-18T11:40:44;21.60;43.50
75615;DHT22;64199;48.578;-4.520;2022-12-18T11:43:31;21.60;43.50
75615;DHT22;64199;48.578;-4.520;2022-12-18T11:46:00;21.60;43.50
75615;DHT22;64199;48.578;-4.520;2022-12-18T11:48:43;21.60;43.50
75615;DHT22;64199;48.578;-4.520;2022-12-18T11:51:19;21.60;43.50
75615;DHT22;64199;48.578;-4.520;2022-12-18T11:53:46;21.60;43.50
75615;DHT22;64199;48.578;-4.520;2022-12-18T11:58:50;21.60;43.50
75615;DHT22;64199;48.578;-4.520;2022-12-18T12:10:00;21.60;43.40
75615;DHT22;64199;48.578;-4.520;2022-12-18T12:15:19;21.60;43.40
75615;DHT22;64199;48.578;-4.520;2022-12-18T12:21:02;21.70;43.40
75615;DHT22;64199;48.578;-4.520;2022-12-18T12:26:11;21.60;43.40
75615;DHT22;64199;48.578;-4.520;2022-12-18T12:31:47;21.70;43.50
75615;DHT22;64199;48.578;-4.520;2022-12-18T12:37:44;21.70;43.50
75615;DHT22;64199;48.578;-4.520;2022-12-18T12:40:04;21.70;43.50
75615;DHT22;64199;48.578;-4.520;2022-12-18T12:42:44;21.70;43.50
75615;DHT22;64199;48.578;-4.520;2022-12-18T12:45:36;21.70;43.60
75615;DHT22;64199;48.578;-4.520;2022-12-18T12:48:06;21.70;43.60
75615;DHT22;64199;48.578;-4.520;2022-12-18T12:50:36;21.80;43.70
75615;DHT22;64199;48.578;-4.520;2022-12-18T12:53:07;21.80;43.70
75615;DHT22;64199;48.578;-4.520;2022-12-18T12:55:34;21.80;43.70
75615;DHT22;64199;48.578;-4.520;2022-12-18T13:01:18;21.70;43.60
75615;DHT22;64199;48.578;-4.520;2022-12-18T13:06:48;21.80;43.70
75615;DHT22;64199;48.578;-4.520;2022-12-18T13:09:16;21.80;43.70
75615;DHT22;64199;48.578;-4.520;2022-12-18T13:11:43;21.80;43.70
75615;DHT22;64199;48.578;-4.520;2022-12-18T13:14:32;21.80;43.70
75615;DHT22;64199;48.578;-4.520;2022-12-18T13:17:37;21.80;43.70
75615;DHT22;64199;48.578;-4.520;2022-12-18T13:20:11;21.80;43.70
75615;DHT22;64199;48.578;-4.520;2022-12-18T13:22:46;21.80;43.70
75615;DHT22;64199;48.578;-4.520;2022-12-18T13:25:35;21.80;43.70
75615;DHT22;64199;48.578;-4.520;2022-12-18T13:28:10;21.90;43.80
75615;DHT22;64199;48.578;-4.520;2022-12-18T13:40:58;21.90;43.80
75615;DHT22;64199;48.578;-4.520;2022-12-18T13:48:36;21.90;43.80
75615;DHT22;64199;48.578;-4.520;2022-12-18T13:51:10;21.90;43.80
75615;DHT22;64199;48.578;-4.520;2022-12-18T13:53:42;21.90;43.80
75615;DHT22;64199;48.578;-4.520;2022-12-18T13:56:08;21.90;43.70
75615;DHT22;64199;48.578;-4.520;2022-12-18T13:58:34;21.90;43.70
75615;DHT22;64199;48.578;-4.520;2022-12-18T14:01:00;21.90;43.70
75615;DHT22;64199;48.578;-4.520;2022-12-18T14:03:29;21.90;43.70
75615;DHT22;64199;48.578;-4.520;2022-12-18T14:06:02;21.90;43.70
75615;DHT22;64199;48.578;-4.520;2022-12-18T14:08:37;21.90;43.60
75615;DHT22;64199;48.578;-4.520;2022-12-18T14:11:07;21.90;43.60
75615;DHT22;64199;48.578;-4.520;2022-12-18T14:13:43;21.90;43.60
75615;DHT22;64199;48.578;-4.520;2022-12-18T14:16:13;21.90;44.30
75615;DHT22;64199;48.578;-4.520;2022-12-18T14:18:48;22.00;43.80
75615;DHT22;64199;48.578;-4.520;2022-12-18T14:21:20;22.00;43.80
75615;DHT22;64199;48.578;-4.520;2022-12-18T14:23:47;22.00;43.80
75615;DHT22;64199;48.578;-4.520;2022-12-18T14:26:29;22.00;43.80
75615;DHT22;64199;48.578;-4.520;2022-12-18T14:32:06;22.00;43.90
75615;DHT22;64199;48.578;-4.520;2022-12-18T14:34:32;22.00;43.90
75615;DHT22;64199;48.578;-4.520;2022-12-18T14:36:58;22.00;43.90
75615;DHT22;64199;48.578;-4.520;2022-12-18T14:39:23;22.00;43.90
75615;DHT22;64199;48.578;-4.520;2022-12-18T14:41:51;22.00;43.90
75615;DHT22;64199;48.578;-4.520;2022-12-18T14:44:17;22.00;43.90
75615;DHT22;64199;48.578;-4.520;2022-12-18T14:46:47;22.00;43.90
75615;DHT22;64199;48.578;-4.520;2022-12-18T14:49:29;22.00;43.90
75615;DHT22;64199;48.578;-4.520;2022-12-18T14:52:04;22.00;44.00
75615;DHT22;64199;48.578;-4.520;2022-12-18T14:54:31;22.00;43.90
75615;DHT22;64199;48.578;-4.520;2022-12-18T14:57:32;22.00;44.00
75615;DHT22;64199;48.578;-4.520;2022-12-18T15:00:10;22.00;44.00
75615;DHT22;64199;48.578;-4.520;2022-12-18T15:02:40;22.00;44.00
75615;DHT22;64199;48.578;-4.520;2022-12-18T15:08:24;22.00;44.10
75615;DHT22;64199;48.578;-4.520;2022-12-18T15:10:50;22.00;44.10
75615;DHT22;64199;48.578;-4.520;2022-12-18T15:13:23;22.00;44.10
75615;DHT22;64199;48.578;-4.520;2022-12-18T15:15:53;22.00;44.10
75615;DHT22;64199;48.578;-4.520;2022-12-18T15:18:29;22.10;44.20
75615;DHT22;64199;48.578;-4.520;2022-12-18T15:21:00;22.00;44.10
75615;DHT22;64199;48.578;-4.520;2022-12-18T15:26:10;22.10;44.20
75615;DHT22;64199;48.578;-4.520;2022-12-18T15:28:38;22.10;44.20
75615;DHT22;64199;48.578;-4.520;2022-12-18T15:33:44;22.10;44.20
75615;DHT22;64199;48.578;-4.520;2022-12-18T15:36:14;22.10;44.20
75615;DHT22;64199;48.578;-4.520;2022-12-18T15:38:39;22.10;44.20
75615;DHT22;64199;48.578;-4.520;2022-12-18T15:41:05;22.10;44.30
75615;DHT22;64199;48.578;-4.520;2022-12-18T15:43:32;22.10;44.30
75615;DHT22;64199;48.578;-4.520;2022-12-18T15:46:05;22.10;44.40
75615;DHT22;64199;48.578;-4.520;2022-12-18T15:48:34;22.10;44.40
75615;DHT22;64199;48.578;-4.520;2022-12-18T15:51:01;22.10;44.40
75615;DHT22;64199;48.578;-4.520;2022-12-18T15:53:33;22.10;44.30
75615;DHT22;64199;48.578;-4.520;2022-12-18T15:55:59;22.10;44.30
75615;DHT22;64199;48.578;-4.520;2022-12-18T15:58:44;22.10;44.20
75615;DHT22;64199;48.578;-4.520;2022-12-18T16:01:10;22.20;44.20
75615;DHT22;64199;48.578;-4.520;2022-12-18T16:03:37;22.20;44.20
75615;DHT22;64199;48.578;-4.520;2022-12-18T16:06:03;22.10;44.20
75615;DHT22;64199;48.578;-4.520;2022-12-18T16:08:29;22.10;44.20
75615;DHT22;64199;48.578;-4.520;2022-12-18T16:10:56;22.10;44.10
75615;DHT22;64199;48.578;-4.520;2022-12-18T16:13:22;22.10;44.10
75615;DHT22;64199;48.578;-4.520;2022-12-18T16:15:48;22.20;44.10
75615;DHT22;64199;48.578;-4.520;2022-12-18T16:18:14;22.20;44.10
75615;DHT22;64199;48.578;-4.520;2022-12-18T16:20:40;22.20;44.10
75615;DHT22;64199;48.578;-4.520;2022-12-18T16:23:06;22.20;44.10
75615;DHT22;64199;48.578;-4.520;2022-12-18T16:25:32;22.20;44.10
75615;DHT22;64199;48.578;-4.520;2022-12-18T16:27:58;22.20;44.10
75615;DHT22;64199;48.578;-4.520;2022-12-18T16:30:29;22.20;44.10
75615;DHT22;64199;48.578;-4.520;2022-12-18T16:32:57;22.20;44.10
75615;DHT22;64199;48.578;-4.520;2022-12-18T16:35:23;22.20;44.10
75615;DHT22;64199;48.578;-4.520;2022-12-18T16:37:49;22.30;44.10
75615;DHT22;64199;48.578;-4.520;2022-12-18T16:40:16;22.30;44.10
75615;DHT22;64199;48.578;-4.520;2022-12-18T16:42:44;22.30;44.10
75615;DHT22;64199;48.578;-4.520;2022-12-18T16:45:13;22.30;44.10
75615;DHT22;64199;48.578;-4.520;2022-12-18T16:47:39;22.30;44.10
75615;DHT22;64199;48.578;-4.520;2022-12-18T16:50:06;22.30;44.10
75615;DHT22;64199;48.578;-4.520;2022-12-18T16:52:32;22.30;44.00
75615;DHT22;64199;48.578;-4.520;2022-12-18T16:54:58;22.30;44.10
75615;DHT22;64199;48.578;-4.520;2022-12-18T16:57:24;22.30;44.00
75615;DHT22;64199;48.578;-4.520;2022-12-18T16:59:49;22.30;44.00
75615;DHT22;64199;48.578;-4.520;2022-12-18T17:02:20;22.30;44.00
75615;DHT22;64199;48.578;-4.520;2022-12-18T17:04:47;22.30;44.00
75615;DHT22;64199;48.578;-4.520;2022-12-18T17:07:14;22.30;44.00
75615;DHT22;64199;48.578;-4.520;2022-12-18T17:09:40;22.30;44.00
75615;DHT22;64199;48.578;-4.520;2022-12-18T17:12:06;22.30;44.00
75615;DHT22;64199;48.578;-4.520;2022-12-18T17:14:35;22.30;43.90
75615;DHT22;64199;48.578;-4.520;2022-12-18T17:17:01;22.40;44.00
75615;DHT22;64199;48.578;-4.520;2022-12-18T17:19:27;22.40;44.00